Seward, Illinois
Current Conditions -  °F | °C
As of 12:15 PM on Sunday 25 Jan 2015 (Local Time) from KFEP Reporting Station
Scattered Clouds Scattered Clouds  
Wind Chill: 15°   Ceiling: Unl
Heat Index: 29°   Visibility: 10mi
Dew Point: 20°   Wind: 23mph
Humidity: 71%   Direction: 30°NNE
Pressure: 29.87"   Gusts: 26mph
Location:  42.24°N, 89.36°W
Report Text: KFEP 251815Z AUTO 03020G23KT 10SM SCT020 SCT049 SCT120 M02/M06 A2987 RMK AO2 T10181064
Loading
Personal Weather Stations






























Interactive Weather Map New forecast layout! Learn more

10-Day Weather Forecast

Advertisements
Track Severe Weather on mobile